sensor_id;sensor_type;location;lat;lon;timestamp;temperature;humidity
9881;DHT22;4979;51.014;6.678;2024-03-25T00:02:06;6.10;99.90
9881;DHT22;4979;51.014;6.678;2024-03-25T00:04:32;6.10;99.90
9881;DHT22;4979;51.014;6.678;2024-03-25T00:06:57;6.10;99.90
9881;DHT22;4979;51.014;6.678;2024-03-25T00:09:24;6.10;99.90
9881;DHT22;4979;51.014;6.678;2024-03-25T00:14:20;6.00;99.90
9881;DHT22;4979;51.014;6.678;2024-03-25T00:16:45;6.00;99.90
9881;DHT22;4979;51.014;6.678;2024-03-25T00:19:12;6.00;99.90
9881;DHT22;4979;51.014;6.678;2024-03-25T00:21:37;5.90;99.90
9881;DHT22;4979;51.014;6.678;2024-03-25T00:24:03;6.00;99.90
9881;DHT22;4979;51.014;6.678;2024-03-25T00:26:29;6.00;99.90
9881;DHT22;4979;51.014;6.678;2024-03-25T00:28:54;6.00;99.90
9881;DHT22;4979;51.014;6.678;2024-03-25T00:31:20;6.00;99.90
9881;DHT22;4979;51.014;6.678;2024-03-25T00:33:45;6.00;99.90
9881;DHT22;4979;51.014;6.678;2024-03-25T00:36:11;6.00;99.90
9881;DHT22;4979;51.014;6.678;2024-03-25T00:38:37;5.90;99.90
9881;DHT22;4979;51.014;6.678;2024-03-25T00:41:03;5.90;99.90
9881;DHT22;4979;51.014;6.678;2024-03-25T00:43:29;5.90;99.90
9881;DHT22;4979;51.014;6.678;2024-03-25T00:45:54;6.00;99.90
9881;DHT22;4979;51.014;6.678;2024-03-25T00:50:46;5.90;99.90
9881;DHT22;4979;51.014;6.678;2024-03-25T00:53:11;5.90;99.90
9881;DHT22;4979;51.014;6.678;2024-03-25T00:55:37;5.90;99.90
9881;DHT22;4979;51.014;6.678;2024-03-25T00:58:03;5.90;99.90
9881;DHT22;4979;51.014;6.678;2024-03-25T01:00:29;5.90;99.90
9881;DHT22;4979;51.014;6.678;2024-03-25T01:02:55;5.90;99.90
9881;DHT22;4979;51.014;6.678;2024-03-25T01:05:21;5.80;99.90
9881;DHT22;4979;51.014;6.678;2024-03-25T01:07:46;5.80;99.90
9881;DHT22;4979;51.014;6.678;2024-03-25T01:10:12;5.80;99.90
9881;DHT22;4979;51.014;6.678;2024-03-25T01:12:37;5.70;99.90
9881;DHT22;4979;51.014;6.678;2024-03-25T01:15:03;5.80;99.90
9881;DHT22;4979;51.014;6.678;2024-03-25T01:17:30;5.80;99.90
9881;DHT22;4979;51.014;6.678;2024-03-25T01:22:22;5.80;99.90
9881;DHT22;4979;51.014;6.678;2024-03-25T01:24:47;5.80;99.90
9881;DHT22;4979;51.014;6.678;2024-03-25T01:27:13;5.70;99.90
9881;DHT22;4979;51.014;6.678;2024-03-25T01:29:38;5.70;99.90
9881;DHT22;4979;51.014;6.678;2024-03-25T01:32:04;5.80;99.90
9881;DHT22;4979;51.014;6.678;2024-03-25T01:34:30;5.70;99.90
9881;DHT22;4979;51.014;6.678;2024-03-25T01:36:56;5.70;99.90
9881;DHT22;4979;51.014;6.678;2024-03-25T01:39:22;5.80;99.90
9881;DHT22;4979;51.014;6.678;2024-03-25T01:41:49;5.70;99.90
9881;DHT22;4979;51.014;6.678;2024-03-25T01:44:15;5.80;99.90
9881;DHT22;4979;51.014;6.678;2024-03-25T01:46:41;5.80;99.90
9881;DHT22;4979;51.014;6.678;2024-03-25T01:49:08;5.80;99.90
9881;DHT22;4979;51.014;6.678;2024-03-25T01:51:35;5.80;99.90
9881;DHT22;4979;51.014;6.678;2024-03-25T01:54:02;5.70;99.90
9881;DHT22;4979;51.014;6.678;2024-03-25T01:56:31;5.70;99.90
9881;DHT22;4979;51.014;6.678;2024-03-25T01:58:59;5.70;99.90
9881;DHT22;4979;51.014;6.678;2024-03-25T02:01:25;5.80;99.90
9881;DHT22;4979;51.014;6.678;2024-03-25T02:03:52;5.80;99.90
9881;DHT22;4979;51.014;6.678;2024-03-25T02:06:19;5.80;99.90
9881;DHT22;4979;51.014;6.678;2024-03-25T02:08:45;5.80;99.90
9881;DHT22;4979;51.014;6.678;2024-03-25T02:11:12;5.80;99.90
9881;DHT22;4979;51.014;6.678;2024-03-25T02:13:39;5.80;99.90
9881;DHT22;4979;51.014;6.678;2024-03-25T02:16:04;5.80;99.90
9881;DHT22;4979;51.014;6.678;2024-03-25T02:18:30;5.80;99.90
9881;DHT22;4979;51.014;6.678;2024-03-25T02:20:57;5.80;99.90
9881;DHT22;4979;51.014;6.678;2024-03-25T02:23:23;5.80;99.90
9881;DHT22;4979;51.014;6.678;2024-03-25T02:25:52;5.80;99.90
9881;DHT22;4979;51.014;6.678;2024-03-25T02:28:19;5.80;99.90
9881;DHT22;4979;51.014;6.678;2024-03-25T02:30:44;5.80;99.90
9881;DHT22;4979;51.014;6.678;2024-03-25T02:33:10;5.80;99.90
9881;DHT22;4979;51.014;6.678;2024-03-25T02:35:37;5.80;99.90
9881;DHT22;4979;51.014;6.678;2024-03-25T02:40:30;5.80;99.90
9881;DHT22;4979;51.014;6.678;2024-03-25T02:42:56;5.80;99.90
9881;DHT22;4979;51.014;6.678;2024-03-25T02:45:22;5.80;99.90
9881;DHT22;4979;51.014;6.678;2024-03-25T02:47:49;5.80;99.90
9881;DHT22;4979;51.014;6.678;2024-03-25T02:50:14;5.80;99.90
9881;DHT22;4979;51.014;6.678;2024-03-25T02:52:40;5.70;99.90
9881;DHT22;4979;51.014;6.678;2024-03-25T02:55:06;5.70;99.90
9881;DHT22;4979;51.014;6.678;2024-03-25T02:57:31;5.70;99.90
9881;DHT22;4979;51.014;6.678;2024-03-25T02:59:57;5.70;99.90
9881;DHT22;4979;51.014;6.678;2024-03-25T03:02:22;5.70;99.90
9881;DHT22;4979;51.014;6.678;2024-03-25T03:04:48;5.70;99.90
9881;DHT22;4979;51.014;6.678;2024-03-25T03:07:13;5.70;99.90
9881;DHT22;4979;51.014;6.678;2024-03-25T03:09:39;5.70;99.90
9881;DHT22;4979;51.014;6.678;2024-03-25T03:12:05;5.70;99.90
9881;DHT22;4979;51.014;6.678;2024-03-25T03:14:30;5.70;99.90
9881;DHT22;4979;51.014;6.678;2024-03-25T03:16:56;5.50;99.90
9881;DHT22;4979;51.014;6.678;2024-03-25T03:19:26;5.50;99.90
9881;DHT22;4979;51.014;6.678;2024-03-25T03:21:52;5.50;99.90
9881;DHT22;4979;51.014;6.678;2024-03-25T03:24:18;5.50;99.90
9881;DHT22;4979;51.014;6.678;2024-03-25T03:26:44;5.50;99.90
9881;DHT22;4979;51.014;6.678;2024-03-25T03:29:10;5.40;99.90
9881;DHT22;4979;51.014;6.678;2024-03-25T03:31:36;5.40;99.90
9881;DHT22;4979;51.014;6.678;2024-03-25T03:34:02;5.30;99.90
9881;DHT22;4979;51.014;6.678;2024-03-25T03:36:27;5.20;99.90
9881;DHT22;4979;51.014;6.678;2024-03-25T03:38:53;5.30;99.90
9881;DHT22;4979;51.014;6.678;2024-03-25T03:41:19;5.20;99.90
9881;DHT22;4979;51.014;6.678;2024-03-25T03:43:45;5.20;99.90
9881;DHT22;4979;51.014;6.678;2024-03-25T03:46:11;5.10;99.90
9881;DHT22;4979;51.014;6.678;2024-03-25T03:48:36;5.20;99.90
9881;DHT22;4979;51.014;6.678;2024-03-25T03:51:06;5.20;99.90
9881;DHT22;4979;51.014;6.678;2024-03-25T03:53:32;5.10;99.90
9881;DHT22;4979;51.014;6.678;2024-03-25T03:56:03;5.10;99.90
9881;DHT22;4979;51.014;6.678;2024-03-25T03:58:32;5.10;99.90
9881;DHT22;4979;51.014;6.678;2024-03-25T04:00:58;5.20;99.90
9881;DHT22;4979;51.014;6.678;2024-03-25T04:03:24;5.20;99.90
9881;DHT22;4979;51.014;6.678;2024-03-25T04:05:50;5.20;99.90
9881;DHT22;4979;51.014;6.678;2024-03-25T04:08:15;5.10;99.90
9881;DHT22;4979;51.014;6.678;2024-03-25T04:10:44;5.10;99.90
9881;DHT22;4979;51.014;6.678;2024-03-25T04:13:10;5.10;99.90
9881;DHT22;4979;51.014;6.678;2024-03-25T04:15:40;5.10;99.90
9881;DHT22;4979;51.014;6.678;2024-03-25T04:18:07;5.10;99.90
9881;DHT22;4979;51.014;6.678;2024-03-25T04:20:41;5.10;99.90
9881;DHT22;4979;51.014;6.678;2024-03-25T04:23:07;5.10;99.90
9881;DHT22;4979;51.014;6.678;2024-03-25T04:25:35;5.10;99.90
9881;DHT22;4979;51.014;6.678;2024-03-25T04:28:03;5.10;99.90
9881;DHT22;4979;51.014;6.678;2024-03-25T04:30:29;5.10;99.90
9881;DHT22;4979;51.014;6.678;2024-03-25T04:32:54;5.10;99.90
9881;DHT22;4979;51.014;6.678;2024-03-25T04:35:20;5.10;99.90
9881;DHT22;4979;51.014;6.678;2024-03-25T04:37:45;5.10;99.90
9881;DHT22;4979;51.014;6.678;2024-03-25T04:40:11;5.10;99.90
9881;DHT22;4979;51.014;6.678;2024-03-25T04:42:40;5.00;99.90
9881;DHT22;4979;51.014;6.678;2024-03-25T04:45:06;5.10;99.90
9881;DHT22;4979;51.014;6.678;2024-03-25T04:47:32;5.10;99.90
9881;DHT22;4979;51.014;6.678;2024-03-25T04:49:57;5.20;99.90
9881;DHT22;4979;51.014;6.678;2024-03-25T04:52:23;5.10;99.90
9881;DHT22;4979;51.014;6.678;2024-03-25T04:54:49;5.10;99.90
9881;DHT22;4979;51.014;6.678;2024-03-25T04:57:15;5.10;99.90
9881;DHT22;4979;51.014;6.678;2024-03-25T04:59:41;5.00;99.90
9881;DHT22;4979;51.014;6.678;2024-03-25T05:02:06;5.10;99.90
9881;DHT22;4979;51.014;6.678;2024-03-25T05:04:32;5.00;99.90
9881;DHT22;4979;51.014;6.678;2024-03-25T05:06:57;5.00;99.90
9881;DHT22;4979;51.014;6.678;2024-03-25T05:09:23;5.00;99.90
9881;DHT22;4979;51.014;6.678;2024-03-25T05:11:49;5.00;99.90
9881;DHT22;4979;51.014;6.678;2024-03-25T05:14:14;5.10;99.90
9881;DHT22;4979;51.014;6.678;2024-03-25T05:16:40;5.10;99.90
9881;DHT22;4979;51.014;6.678;2024-03-25T05:19:05;5.10;99.90
9881;DHT22;4979;51.014;6.678;2024-03-25T05:21:31;5.00;99.90
9881;DHT22;4979;51.014;6.678;2024-03-25T05:23:57;5.10;99.90
9881;DHT22;4979;51.014;6.678;2024-03-25T05:26:22;5.00;99.90
9881;DHT22;4979;51.014;6.678;2024-03-25T05:28:55;5.00;99.90
9881;DHT22;4979;51.014;6.678;2024-03-25T05:33:46;5.10;99.90
9881;DHT22;4979;51.014;6.678;2024-03-25T05:36:12;5.10;99.90
9881;DHT22;4979;51.014;6.678;2024-03-25T05:38:37;5.10;99.90
9881;DHT22;4979;51.014;6.678;2024-03-25T05:41:03;5.00;99.90
9881;DHT22;4979;51.014;6.678;2024-03-25T05:43:29;5.10;99.90
9881;DHT22;4979;51.014;6.678;2024-03-25T05:45:55;5.10;99.90
9881;DHT22;4979;51.014;6.678;2024-03-25T05:48:21;5.10;99.90
9881;DHT22;4979;51.014;6.678;2024-03-25T05:51:06;5.20;99.90
9881;DHT22;4979;51.014;6.678;2024-03-25T05:53:34;5.20;99.90
9881;DHT22;4979;51.014;6.678;2024-03-25T05:56:00;5.20;99.90
9881;DHT22;4979;51.014;6.678;2024-03-25T05:58:26;5.30;99.90
9881;DHT22;4979;51.014;6.678;2024-03-25T06:00:52;5.30;99.90
9881;DHT22;4979;51.014;6.678;2024-03-25T06:03:21;5.30;99.90
9881;DHT22;4979;51.014;6.678;2024-03-25T06:05:47;5.30;99.90
9881;DHT22;4979;51.014;6.678;2024-03-25T06:08:13;5.40;99.90
9881;DHT22;4979;51.014;6.678;2024-03-25T06:10:46;5.40;99.90
9881;DHT22;4979;51.014;6.678;2024-03-25T06:13:11;5.40;99.90
9881;DHT22;4979;51.014;6.678;2024-03-25T06:15:37;5.40;99.90
9881;DHT22;4979;51.014;6.678;2024-03-25T06:18:03;5.40;99.90
9881;DHT22;4979;51.014;6.678;2024-03-25T06:20:28;5.40;99.90
9881;DHT22;4979;51.014;6.678;2024-03-25T06:22:54;5.40;99.90
9881;DHT22;4979;51.014;6.678;2024-03-25T06:25:19;5.50;99.90
9881;DHT22;4979;51.014;6.678;2024-03-25T06:27:45;5.50;99.90
9881;DHT22;4979;51.014;6.678;2024-03-25T06:30:11;5.70;99.90
9881;DHT22;4979;51.014;6.678;2024-03-25T06:32:56;5.80;99.90
9881;DHT22;4979;51.014;6.678;2024-03-25T06:35:42;5.90;99.90
9881;DHT22;4979;51.014;6.678;2024-03-25T06:38:09;6.00;99.90
9881;DHT22;4979;51.014;6.678;2024-03-25T06:40:35;6.10;99.90
9881;DHT22;4979;51.014;6.678;2024-03-25T06:43:00;6.10;99.90
9881;DHT22;4979;51.014;6.678;2024-03-25T06:45:26;6.10;99.90
9881;DHT22;4979;51.014;6.678;2024-03-25T06:47:51;6.30;99.90
9881;DHT22;4979;51.014;6.678;2024-03-25T06:50:17;6.30;99.90
9881;DHT22;4979;51.014;6.678;2024-03-25T06:52:42;6.20;99.90
9881;DHT22;4979;51.014;6.678;2024-03-25T06:55:08;6.40;99.90
9881;DHT22;4979;51.014;6.678;2024-03-25T07:00:00;6.50;99.90
9881;DHT22;4979;51.014;6.678;2024-03-25T07:02:25;6.70;99.90
9881;DHT22;4979;51.014;6.678;2024-03-25T07:04:51;6.80;99.90
9881;DHT22;4979;51.014;6.678;2024-03-25T07:07:16;6.80;99.90
9881;DHT22;4979;51.014;6.678;2024-03-25T07:09:42;6.80;99.90
9881;DHT22;4979;51.014;6.678;2024-03-25T07:12:07;6.70;99.90
9881;DHT22;4979;51.014;6.678;2024-03-25T07:16:59;6.90;99.90
9881;DHT22;4979;51.014;6.678;2024-03-25T07:19:25;6.90;99.90
9881;DHT22;4979;51.014;6.678;2024-03-25T07:21:50;7.20;99.90
9881;DHT22;4979;51.014;6.678;2024-03-25T07:24:16;7.20;99.90
9881;DHT22;4979;51.014;6.678;2024-03-25T07:26:42;7.30;99.90
9881;DHT22;4979;51.014;6.678;2024-03-25T07:29:07;7.40;99.90
9881;DHT22;4979;51.014;6.678;2024-03-25T07:33:59;7.50;99.90
9881;DHT22;4979;51.014;6.678;2024-03-25T07:36:24;7.60;99.90
9881;DHT22;4979;51.014;6.678;2024-03-25T07:38:50;7.40;99.90
9881;DHT22;4979;51.014;6.678;2024-03-25T07:41:15;7.50;99.90
9881;DHT22;4979;51.014;6.678;2024-03-25T07:43:41;7.50;99.90
9881;DHT22;4979;51.014;6.678;2024-03-25T07:46:06;7.50;99.90
9881;DHT22;4979;51.014;6.678;2024-03-25T07:48:32;7.40;99.90
9881;DHT22;4979;51.014;6.678;2024-03-25T07:50:57;7.30;99.90
9881;DHT22;4979;51.014;6.678;2024-03-25T07:53:23;7.40;99.90
9881;DHT22;4979;51.014;6.678;2024-03-25T07:55:48;7.70;99.90
9881;DHT22;4979;51.014;6.678;2024-03-25T07:58:14;7.90;99.90
9881;DHT22;4979;51.014;6.678;2024-03-25T08:00:39;7.80;99.90
9881;DHT22;4979;51.014;6.678;2024-03-25T08:03:05;8.10;99.90
9881;DHT22;4979;51.014;6.678;2024-03-25T08:05:31;8.10;99.90
9881;DHT22;4979;51.014;6.678;2024-03-25T08:07:56;8.10;99.90
9881;DHT22;4979;51.014;6.678;2024-03-25T08:10:22;8.40;99.90
9881;DHT22;4979;51.014;6.678;2024-03-25T08:12:47;8.60;99.90
9881;DHT22;4979;51.014;6.678;2024-03-25T08:15:14;8.50;99.90
9881;DHT22;4979;51.014;6.678;2024-03-25T08:17:39;8.80;99.90
9881;DHT22;4979;51.014;6.678;2024-03-25T08:20:05;8.80;99.90
9881;DHT22;4979;51.014;6.678;2024-03-25T08:22:31;8.80;99.90
9881;DHT22;4979;51.014;6.678;2024-03-25T08:24:56;9.00;99.90
9881;DHT22;4979;51.014;6.678;2024-03-25T08:27:22;8.90;99.90
9881;DHT22;4979;51.014;6.678;2024-03-25T08:29:47;9.00;99.90
9881;DHT22;4979;51.014;6.678;2024-03-25T08:32:14;9.20;99.90
9881;DHT22;4979;51.014;6.678;2024-03-25T08:34:40;9.40;99.90
9881;DHT22;4979;51.014;6.678;2024-03-25T08:37:05;9.40;99.90
9881;DHT22;4979;51.014;6.678;2024-03-25T08:39:31;9.50;99.90
9881;DHT22;4979;51.014;6.678;2024-03-25T08:41:56;9.60;99.90
9881;DHT22;4979;51.014;6.678;2024-03-25T08:44:22;9.70;99.90
9881;DHT22;4979;51.014;6.678;2024-03-25T08:46:47;9.70;99.90
9881;DHT22;4979;51.014;6.678;2024-03-25T08:49:13;9.30;99.90
9881;DHT22;4979;51.014;6.678;2024-03-25T08:51:38;9.10;99.90
9881;DHT22;4979;51.014;6.678;2024-03-25T08:54:04;9.10;99.90
9881;DHT22;4979;51.014;6.678;2024-03-25T08:56:29;9.10;99.90
9881;DHT22;4979;51.014;6.678;2024-03-25T08:58:55;9.00;99.90
9881;DHT22;4979;51.014;6.678;2024-03-25T09:01:21;9.10;99.90
9881;DHT22;4979;51.014;6.678;2024-03-25T09:03:47;9.10;99.90
9881;DHT22;4979;51.014;6.678;2024-03-25T09:06:13;9.10;99.90
9881;DHT22;4979;51.014;6.678;2024-03-25T09:08:39;9.00;99.90
9881;DHT22;4979;51.014;6.678;2024-03-25T09:11:24;9.30;99.90
9881;DHT22;4979;51.014;6.678;2024-03-25T09:13:50;9.60;99.90
9881;DHT22;4979;51.014;6.678;2024-03-25T09:16:16;9.60;99.90
9881;DHT22;4979;51.014;6.678;2024-03-25T09:18:41;9.50;99.90
9881;DHT22;4979;51.014;6.678;2024-03-25T09:21:07;9.60;99.90
9881;DHT22;4979;51.014;6.678;2024-03-25T09:25:58;9.70;99.90
9881;DHT22;4979;51.014;6.678;2024-03-25T09:28:24;9.80;99.90
9881;DHT22;4979;51.014;6.678;2024-03-25T09:30:50;10.00;99.90
9881;DHT22;4979;51.014;6.678;2024-03-25T09:33:15;10.30;99.90
9881;DHT22;4979;51.014;6.678;2024-03-25T09:35:41;10.30;99.90
9881;DHT22;4979;51.014;6.678;2024-03-25T09:38:06;10.50;99.90
9881;DHT22;4979;51.014;6.678;2024-03-25T09:40:35;10.50;99.90
9881;DHT22;4979;51.014;6.678;2024-03-25T09:43:02;10.30;99.90
9881;DHT22;4979;51.014;6.678;2024-03-25T09:45:29;10.50;99.90
9881;DHT22;4979;51.014;6.678;2024-03-25T09:47:55;10.60;99.90
9881;DHT22;4979;51.014;6.678;2024-03-25T09:50:21;10.50;99.90
9881;DHT22;4979;51.014;6.678;2024-03-25T09:52:48;10.40;99.90
9881;DHT22;4979;51.014;6.678;2024-03-25T09:55:14;10.70;99.90
9881;DHT22;4979;51.014;6.678;2024-03-25T09:57:41;10.80;99.90
9881;DHT22;4979;51.014;6.678;2024-03-25T10:00:08;10.80;99.90
9881;DHT22;4979;51.014;6.678;2024-03-25T10:02:40;10.70;99.90
9881;DHT22;4979;51.014;6.678;2024-03-25T10:05:07;11.00;99.90
9881;DHT22;4979;51.014;6.678;2024-03-25T10:07:33;11.20;99.90
9881;DHT22;4979;51.014;6.678;2024-03-25T10:10:03;11.10;99.90
9881;DHT22;4979;51.014;6.678;2024-03-25T10:12:28;11.00;99.90
9881;DHT22;4979;51.014;6.678;2024-03-25T10:14:54;11.30;99.90
9881;DHT22;4979;51.014;6.678;2024-03-25T10:17:19;11.10;99.90
9881;DHT22;4979;51.014;6.678;2024-03-25T10:19:45;11.10;99.90
9881;DHT22;4979;51.014;6.678;2024-03-25T10:22:10;11.40;99.90
9881;DHT22;4979;51.014;6.678;2024-03-25T10:24:42;11.70;99.90
9881;DHT22;4979;51.014;6.678;2024-03-25T10:27:20;12.00;99.90
9881;DHT22;4979;51.014;6.678;2024-03-25T10:29:52;12.10;99.90
9881;DHT22;4979;51.014;6.678;2024-03-25T10:32:18;12.20;99.90
9881;DHT22;4979;51.014;6.678;2024-03-25T10:34:44;12.30;99.90
9881;DHT22;4979;51.014;6.678;2024-03-25T10:37:10;12.30;99.90
9881;DHT22;4979;51.014;6.678;2024-03-25T10:39:43;12.20;99.90
9881;DHT22;4979;51.014;6.678;2024-03-25T10:42:14;12.10;99.90
9881;DHT22;4979;51.014;6.678;2024-03-25T10:44:40;12.20;99.90
9881;DHT22;4979;51.014;6.678;2024-03-25T10:47:06;12.00;99.90
9881;DHT22;4979;51.014;6.678;2024-03-25T10:49:42;12.20;99.90
9881;DHT22;4979;51.014;6.678;2024-03-25T10:52:11;12.30;99.90
9881;DHT22;4979;51.014;6.678;2024-03-25T10:54:39;12.40;99.90
9881;DHT22;4979;51.014;6.678;2024-03-25T10:57:07;12.40;99.90
9881;DHT22;4979;51.014;6.678;2024-03-25T10:59:35;12.00;99.90
9881;DHT22;4979;51.014;6.678;2024-03-25T11:02:09;12.00;99.90
9881;DHT22;4979;51.014;6.678;2024-03-25T11:04:35;11.90;99.90
9881;DHT22;4979;51.014;6.678;2024-03-25T11:07:12;11.40;99.90
9881;DHT22;4979;51.014;6.678;2024-03-25T11:09:38;11.40;99.90
9881;DHT22;4979;51.014;6.678;2024-03-25T11:12:05;11.30;99.90
9881;DHT22;4979;51.014;6.678;2024-03-25T11:14:31;11.50;99.90
9881;DHT22;4979;51.014;6.678;2024-03-25T11:16:58;11.50;99.90
9881;DHT22;4979;51.014;6.678;2024-03-25T11:19:29;11.50;99.90
9881;DHT22;4979;51.014;6.678;2024-03-25T11:22:06;12.10;99.90
9881;DHT22;4979;51.014;6.678;2024-03-25T11:24:32;11.50;99.90
9881;DHT22;4979;51.014;6.678;2024-03-25T11:27:01;11.60;99.90
9881;DHT22;4979;51.014;6.678;2024-03-25T11:29:26;11.60;99.90
9881;DHT22;4979;51.014;6.678;2024-03-25T11:31:53;11.80;99.90
9881;DHT22;4979;51.014;6.678;2024-03-25T11:34:19;12.10;99.90
9881;DHT22;4979;51.014;6.678;2024-03-25T11:36:45;12.50;99.90
9881;DHT22;4979;51.014;6.678;2024-03-25T11:39:13;12.20;99.90
9881;DHT22;4979;51.014;6.678;2024-03-25T11:41:42;11.80;99.90
9881;DHT22;4979;51.014;6.678;2024-03-25T11:44:09;11.60;99.90
9881;DHT22;4979;51.014;6.678;2024-03-25T11:46:38;11.70;99.90
9881;DHT22;4979;51.014;6.678;2024-03-25T11:49:12;11.40;99.90
9881;DHT22;4979;51.014;6.678;2024-03-25T11:51:37;11.40;99.90
9881;DHT22;4979;51.014;6.678;2024-03-25T11:54:06;11.30;99.90
9881;DHT22;4979;51.014;6.678;2024-03-25T11:56:32;11.30;99.90
9881;DHT22;4979;51.014;6.678;2024-03-25T11:58:59;11.30;99.90
9881;DHT22;4979;51.014;6.678;2024-03-25T12:01:26;11.20;99.90
9881;DHT22;4979;51.014;6.678;2024-03-25T12:03:51;11.30;99.90
9881;DHT22;4979;51.014;6.678;2024-03-25T12:06:17;11.80;99.90
9881;DHT22;4979;51.014;6.678;2024-03-25T12:08:42;11.50;99.90
9881;DHT22;4979;51.014;6.678;2024-03-25T12:11:31;11.30;99.90
9881;DHT22;4979;51.014;6.678;2024-03-25T12:13:58;11.40;99.90
9881;DHT22;4979;51.014;6.678;2024-03-25T12:16:24;11.20;99.60
9881;DHT22;4979;51.014;6.678;2024-03-25T12:18:51;11.10;99.70
9881;DHT22;4979;51.014;6.678;2024-03-25T12:21:19;11.40;95.90
9881;DHT22;4979;51.014;6.678;2024-03-25T12:23:44;11.90;99.90
9881;DHT22;4979;51.014;6.678;2024-03-25T12:26:10;12.10;98.40
9881;DHT22;4979;51.014;6.678;2024-03-25T12:28:36;11.90;98.10
9881;DHT22;4979;51.014;6.678;2024-03-25T12:31:06;12.00;99.30
9881;DHT22;4979;51.014;6.678;2024-03-25T12:33:40;12.00;96.60
9881;DHT22;4979;51.014;6.678;2024-03-25T12:36:06;12.30;97.80
9881;DHT22;4979;51.014;6.678;2024-03-25T12:38:32;12.30;98.30
9881;DHT22;4979;51.014;6.678;2024-03-25T12:41:05;11.80;97.70
9881;DHT22;4979;51.014;6.678;2024-03-25T12:43:32;11.70;96.20
9881;DHT22;4979;51.014;6.678;2024-03-25T12:45:58;11.40;94.00
9881;DHT22;4979;51.014;6.678;2024-03-25T12:48:24;11.30;94.00
9881;DHT22;4979;51.014;6.678;2024-03-25T12:53:18;11.90;92.70
9881;DHT22;4979;51.014;6.678;2024-03-25T12:55:45;12.00;91.20
9881;DHT22;4979;51.014;6.678;2024-03-25T12:58:11;12.00;92.60
9881;DHT22;4979;51.014;6.678;2024-03-25T13:00:37;12.20;93.50
9881;DHT22;4979;51.014;6.678;2024-03-25T13:03:04;12.70;93.40
9881;DHT22;4979;51.014;6.678;2024-03-25T13:05:31;12.70;93.70
9881;DHT22;4979;51.014;6.678;2024-03-25T13:07:57;13.10;92.50
9881;DHT22;4979;51.014;6.678;2024-03-25T13:10:23;13.10;93.40
9881;DHT22;4979;51.014;6.678;2024-03-25T13:15:14;13.10;92.10
9881;DHT22;4979;51.014;6.678;2024-03-25T13:17:40;13.10;90.80
9881;DHT22;4979;51.014;6.678;2024-03-25T13:20:05;13.00;91.10
9881;DHT22;4979;51.014;6.678;2024-03-25T13:22:31;13.10;91.60
9881;DHT22;4979;51.014;6.678;2024-03-25T13:27:25;12.80;91.00
9881;DHT22;4979;51.014;6.678;2024-03-25T13:29:50;12.60;90.20
9881;DHT22;4979;51.014;6.678;2024-03-25T13:32:18;12.80;90.30
9881;DHT22;4979;51.014;6.678;2024-03-25T13:34:43;12.60;89.90
9881;DHT22;4979;51.014;6.678;2024-03-25T13:37:10;12.70;89.00
9881;DHT22;4979;51.014;6.678;2024-03-25T13:39:35;13.00;89.00
9881;DHT22;4979;51.014;6.678;2024-03-25T13:42:01;13.00;89.80
9881;DHT22;4979;51.014;6.678;2024-03-25T13:44:27;13.00;90.10
9881;DHT22;4979;51.014;6.678;2024-03-25T13:46:52;12.80;90.80
9881;DHT22;4979;51.014;6.678;2024-03-25T13:49:18;13.10;90.60
9881;DHT22;4979;51.014;6.678;2024-03-25T13:51:45;13.10;90.20
9881;DHT22;4979;51.014;6.678;2024-03-25T13:54:11;13.10;91.00
9881;DHT22;4979;51.014;6.678;2024-03-25T13:56:36;12.90;90.70
9881;DHT22;4979;51.014;6.678;2024-03-25T14:01:28;12.60;89.70
9881;DHT22;4979;51.014;6.678;2024-03-25T14:03:54;12.70;89.00
9881;DHT22;4979;51.014;6.678;2024-03-25T14:06:20;12.70;89.70
9881;DHT22;4979;51.014;6.678;2024-03-25T14:08:45;12.80;90.30
9881;DHT22;4979;51.014;6.678;2024-03-25T14:11:11;12.80;90.40
9881;DHT22;4979;51.014;6.678;2024-03-25T14:13:36;13.10;91.80
9881;DHT22;4979;51.014;6.678;2024-03-25T14:18:28;12.70;91.20
9881;DHT22;4979;51.014;6.678;2024-03-25T14:20:53;12.90;91.20
9881;DHT22;4979;51.014;6.678;2024-03-25T14:23:19;13.10;90.10
9881;DHT22;4979;51.014;6.678;2024-03-25T14:25:45;13.20;90.10
9881;DHT22;4979;51.014;6.678;2024-03-25T14:28:10;13.20;88.20
9881;DHT22;4979;51.014;6.678;2024-03-25T14:30:36;13.10;89.00
9881;DHT22;4979;51.014;6.678;2024-03-25T14:33:02;13.10;89.50
9881;DHT22;4979;51.014;6.678;2024-03-25T14:35:27;13.00;90.00
9881;DHT22;4979;51.014;6.678;2024-03-25T14:37:53;12.90;91.20
9881;DHT22;4979;51.014;6.678;2024-03-25T14:40:19;12.70;91.00
9881;DHT22;4979;51.014;6.678;2024-03-25T14:42:45;12.50;90.70
9881;DHT22;4979;51.014;6.678;2024-03-25T14:45:10;12.50;89.40
9881;DHT22;4979;51.014;6.678;2024-03-25T14:47:36;12.80;90.50
9881;DHT22;4979;51.014;6.678;2024-03-25T14:50:02;13.00;89.90
9881;DHT22;4979;51.014;6.678;2024-03-25T14:52:30;13.10;90.10
9881;DHT22;4979;51.014;6.678;2024-03-25T14:54:55;13.10;89.50
9881;DHT22;4979;51.014;6.678;2024-03-25T14:59:47;13.20;88.80
9881;DHT22;4979;51.014;6.678;2024-03-25T15:02:12;13.40;89.70
9881;DHT22;4979;51.014;6.678;2024-03-25T15:04:40;13.50;90.30
9881;DHT22;4979;51.014;6.678;2024-03-25T15:07:10;13.40;88.70
9881;DHT22;4979;51.014;6.678;2024-03-25T15:09:35;13.30;87.00
9881;DHT22;4979;51.014;6.678;2024-03-25T15:12:01;13.30;87.20
9881;DHT22;4979;51.014;6.678;2024-03-25T15:14:29;13.20;88.00
9881;DHT22;4979;51.014;6.678;2024-03-25T15:16:59;13.20;88.50
9881;DHT22;4979;51.014;6.678;2024-03-25T15:19:25;13.40;89.60
9881;DHT22;4979;51.014;6.678;2024-03-25T15:21:50;13.40;89.20
9881;DHT22;4979;51.014;6.678;2024-03-25T15:24:16;13.40;89.20
9881;DHT22;4979;51.014;6.678;2024-03-25T15:26:41;13.30;88.40
9881;DHT22;4979;51.014;6.678;2024-03-25T15:29:07;13.30;90.10
9881;DHT22;4979;51.014;6.678;2024-03-25T15:31:32;13.40;90.60
9881;DHT22;4979;51.014;6.678;2024-03-25T15:33:59;13.40;90.80
9881;DHT22;4979;51.014;6.678;2024-03-25T15:36:25;13.40;89.00
9881;DHT22;4979;51.014;6.678;2024-03-25T15:38:54;13.50;90.20
9881;DHT22;4979;51.014;6.678;2024-03-25T15:41:20;13.30;89.80
9881;DHT22;4979;51.014;6.678;2024-03-25T15:43:50;13.30;89.40
9881;DHT22;4979;51.014;6.678;2024-03-25T15:46:15;13.20;88.20
9881;DHT22;4979;51.014;6.678;2024-03-25T15:48:41;13.30;90.00
9881;DHT22;4979;51.014;6.678;2024-03-25T15:51:07;13.30;89.60
9881;DHT22;4979;51.014;6.678;2024-03-25T15:55:58;13.10;87.80
9881;DHT22;4979;51.014;6.678;2024-03-25T15:58:24;13.10;89.30
9881;DHT22;4979;51.014;6.678;2024-03-25T16:00:49;13.00;88.90
9881;DHT22;4979;51.014;6.678;2024-03-25T16:03:15;13.00;87.90
9881;DHT22;4979;51.014;6.678;2024-03-25T16:05:40;12.90;87.80
9881;DHT22;4979;51.014;6.678;2024-03-25T16:08:06;12.90;89.90
9881;DHT22;4979;51.014;6.678;2024-03-25T16:10:34;12.90;89.90
9881;DHT22;4979;51.014;6.678;2024-03-25T16:13:00;12.90;90.20
9881;DHT22;4979;51.014;6.678;2024-03-25T16:15:30;12.70;88.40
9881;DHT22;4979;51.014;6.678;2024-03-25T16:17:55;12.60;88.90
9881;DHT22;4979;51.014;6.678;2024-03-25T16:20:21;12.70;90.30
9881;DHT22;4979;51.014;6.678;2024-03-25T16:22:50;12.70;90.70
9881;DHT22;4979;51.014;6.678;2024-03-25T16:25:16;12.70;90.50
9881;DHT22;4979;51.014;6.678;2024-03-25T16:27:42;12.60;90.50
9881;DHT22;4979;51.014;6.678;2024-03-25T16:30:08;12.50;90.00
9881;DHT22;4979;51.014;6.678;2024-03-25T16:35:01;12.40;89.60
9881;DHT22;4979;51.014;6.678;2024-03-25T16:37:28;12.30;89.20
9881;DHT22;4979;51.014;6.678;2024-03-25T16:39:54;12.20;89.80
9881;DHT22;4979;51.014;6.678;2024-03-25T16:42:20;12.20;90.20
9881;DHT22;4979;51.014;6.678;2024-03-25T16:44:46;12.10;90.20
9881;DHT22;4979;51.014;6.678;2024-03-25T16:47:12;12.00;90.50